Track Рязанова Олеся

Time Latitude Longitude Accuracy (66% radius in meters) Altitude (meters) Speed (km/hour) Bearing (degrees) Battery (%) GPS flag
10:14:47 60.371222 29.557036 24 75 0 47.507457733154 31 1 delete
10:14:45 60.371194 29.556962 24 75 1.464623093605 47.507457733154 31 1 delete
10:14:41 60.371134 29.556921 24 73 1.357381105423 51.199905395508 31 1 delete
10:14:38 60.371092 29.556904 24 78 1.2592068910599 56.526668548584 31 1 delete
10:14:37 60.371078 29.556892 24 76 0 58.174217224121 31 1 delete
10:14:33 60.371030 29.556831 24 75 1.0709435939789 63.350818634033 31 1 delete
10:14:29 60.370988 29.556752 24 75 0.8725928068161 51.658676147461 31 1 delete
10:14:25 60.370943 29.556707 24 72 0.80827939510345 25.462526321411 31 1 delete
10:14:24 60.370928 29.556701 24 71 0 38.612979888916 31 1 delete
10:14:22 60.370890 29.556677 16 72 0 47.630222320557 31 1 delete
10:14:19 60.370848 29.556620 24 70 0.1144705042243 79.64892578125 31 1 delete
10:14:11 60.370839 29.556587 16 42 0 124.88275909424 31 1 delete
10:13:58 60.370848 29.556520 24 64 0 196.21946716309 31 1 delete
10:13:54 60.370873 29.556536 24 56 0.643050968647 192.50082397461 31 1 delete
10:13:50 60.370915 29.556577 16 63 0.24517388641834 196.96977233887 31 1 delete
10:13:45 60.370951 29.556621 16 66 0.54599553346634 194.59936523438 31 1 delete
10:13:44 60.370957 29.556634 16 45 0 178.51541137695 31 1 delete
10:13:33 60.371006 29.556621 16 54 0 95.779525756836 31 1 delete
10:13:30 60.371007 29.556600 16 53 0 92.417343139648 31 1 delete
10:13:21 60.371017 29.556525 16 60 0 54.912837982178 31 1 delete
10:13:17 60.371015 29.556493 12 62 0 47.125827789307 31 1 delete
10:13:09 60.370999 29.556471 12 61 0 46.609958648682 31 1 delete
10:12:57 60.370982 29.556425 12 76 0 112.35419464111 31 1 delete
10:12:44 60.370985 29.556413 12 79 0 112.35419464111 31 1 delete
10:12:41 60.370985 29.556413 12 77 0 112.35419464111 31 1 delete
10:12:32 60.370999 29.556426 12 77 0 112.35419464111 31 1 delete
10:12:21 60.371029 29.556373 16 80 0.1579077988863 167.05909729004 31 1 delete
10:12:19 60.371055 29.556364 12 81 0 195.67649841309 31 1 delete
10:12:08 60.371080 29.556357 8 75 0 191.09762573242 31 1 delete
10:12:04 60.371073 29.556345 6 73 0 191.09762573242 31 1 delete
10:11:57 60.371059 29.556325 12 82 0 1.2772573232651 31 1 delete
10:11:45 60.371015 29.556332 8 68 0 24.439638137817 31 1 delete
10:11:33 60.371039 29.556286 16 84 0 348.66397094727 31 1 delete
11:11:35 60.371085 29.556255 12 75 0 250.14935302734 31 0 delete
10:11:20 60.371104 29.556270 8 79 0 161.53099060059 31 1 delete
10:11:08 60.371107 29.556268 8 77 0 161.53099060059 31 1 delete
10:10:56 60.371097 29.556241 8 80 0 161.53099060059 31 1 delete
10:10:44 60.371113 29.556266 8 70 0 155.21452331543 31 1 delete
10:10:35 60.371085 29.556255 12 75 0 250.14935302734 31 1 delete
10:10:32 60.371052 29.556284 16 67 0 165.05848693848 31 1 delete
10:10:20 60.371045 29.556309 8 69 0 12.595154762268 31 1 delete
10:10:15 60.371045 29.556309 12 60 0 12.595154762268 31 1 delete
10:10:08 60.371073 29.556336 8 60 0 12.595154762268 31 1 delete
10:09:55 60.371079 29.556356 8 82 0 12.595154762268 31 1 delete
10:09:43 60.371073 29.556382 8 74 0 201.53575134277 31 1 delete
10:09:35 60.371072 29.556389 8 86 0.08692841231823 201.53575134277 31 1 delete
10:09:31 60.371079 29.556407 6 91 0 185.02976989746 31 1 delete
10:09:19 60.371122 29.556421 8 86 0 11.670586585999 31 1 delete
10:09:05 60.371111 29.556463 12 92 0 197.38265991211 31 1 delete
10:08:53 60.371106 29.556469 16 90 0 197.38265991211 31 1 delete